aviador You're here:

OIAM Decoded Metar

BANDAR MAHSHAHR in IRAN
Report Time2017-08-18 04:00:00
UTC Time2017-08-18 04:48:54
Flight Rules ifr IFR
WindCalm
Visibility4000 m
Phenomena:Mist
Clouds:N/A
Expected CloudBase > 1,600 ft AGL from Temp-Dew spread
CeilingNone
Temp34°C (ISA +19)
Dew Point30°C (80% RH)
Heat Index52.2°C
QNH1001 hPa
Density Alt3,133 ft
Elevation13 ft
Report Wrong Elevation
Raw Report
METAR OIAM 180400Z 00000KT 4000 BR NSC 34/30 Q1001=

Extra information for OIAM:More info

Metar Taf Metar & Taf Last 4 Metars F.Rules Stats Wind Profile Meteogram Temp Stats Airport Information Weather charts Add Link Nearby VenuesMetar ALERT Operation Metar Decoded Social comments